Time;durP1;ratioP1;P1;durP2;ratioP2;P2;SDS_P1;SDS_P2;PMS_P1;PMS_P2;Temp;Humidity;BMP_temperature;BMP_pressure;BME280_temperature;BME280_humidity;BME280_pressure;Samples;Min_cycle;Max_cycle;Signal;HPM_P1;HPM_P2
2021/12/21 00:01:02;;;;;;;27.10;13.07;;;4.40;99.90;;;;;;4969265;28;20199;-26
2021/12/21 00:03:29;;;;;;;29.70;13.70;;;4.40;99.90;;;;;;4978189;28;20234;-26
2021/12/21 00:05:59;;;;;;;32.80;14.20;;;4.40;99.90;;;;;;4987480;28;20222;-26
2021/12/21 00:08:26;;;;;;;27.77;13.00;;;4.40;99.90;;;;;;4972460;28;20721;-26
2021/12/21 00:11:17;;;;;;;28.33;12.73;;;4.40;99.90;;;;;;4970027;28;20210;-26
2021/12/21 00:17:09;;;;;;;27.60;12.60;;;4.30;99.90;;;;;;4986480;28;20209;-26
2021/12/21 00:19:22;;;;;;;29.93;12.70;;;4.30;99.90;;;;;;4969196;28;20638;-26
2021/12/21 00:21:57;;;;;;;26.33;12.77;;;4.20;99.90;;;;;;4970498;28;20241;-25
2021/12/21 00:24:33;;;;;;;28.63;12.57;;;4.20;99.90;;;;;;4969833;28;20257;-26
2021/12/21 00:27:07;;;;;;;26.73;12.53;;;4.10;99.90;;;;;;4970476;28;20293;-26
2021/12/21 00:29:39;;;;;;;27.00;12.57;;;4.10;99.90;;;;;;4971278;28;20222;-26
2021/12/21 00:32:07;;;;;;;30.90;13.00;;;4.10;99.90;;;;;;4971000;28;20218;-26
2021/12/21 00:34:39;;;;;;;27.63;12.57;;;4.10;99.90;;;;;;4969701;28;20289;-26
2021/12/21 00:37:11;;;;;;;27.97;12.07;;;4.10;99.90;;;;;;4970250;28;20203;-26
2021/12/21 00:39:41;;;;;;;25.07;12.70;;;4.00;99.90;;;;;;4970572;28;20210;-26
2021/12/21 00:42:11;;;;;;;25.23;12.80;;;4.00;99.90;;;;;;4982019;28;20217;-26
2021/12/21 00:44:46;;;;;;;28.73;13.47;;;4.00;99.90;;;;;;4969865;28;20646;-26
2021/12/21 00:47:16;;;;;;;23.93;13.13;;;4.00;99.90;;;;;;4968589;28;20215;-26
2021/12/21 00:49:46;;;;;;;26.53;12.63;;;4.00;99.90;;;;;;4981249;28;20226;-26
2021/12/21 00:52:18;;;;;;;29.53;12.63;;;3.90;99.90;;;;;;4988818;28;20341;-26
2021/12/21 00:54:46;;;;;;;27.43;12.97;;;3.90;99.90;;;;;;4977060;28;20265;-26
2021/12/21 00:57:13;;;;;;;26.60;13.07;;;3.90;99.90;;;;;;4968528;28;20219;-26
2021/12/21 00:59:40;;;;;;;29.37;13.33;;;3.80;99.90;;;;;;4969800;28;20546;-26
2021/12/21 01:02:08;;;;;;;29.77;12.73;;;3.80;99.90;;;;;;4975226;28;20222;-26
2021/12/21 01:04:47;;;;;;;26.13;13.00;;;3.70;99.90;;;;;;4983576;28;20253;-26
2021/12/21 01:15:26;;;;;;;23.97;12.40;;;3.50;99.90;;;;;;4969581;28;20654;-26
2021/12/21 01:18:02;;;;;;;29.97;13.60;;;3.40;99.90;;;;;;4970070;28;20219;-26
2021/12/21 01:20:45;;;;;;;26.57;12.67;;;3.40;99.90;;;;;;4967882;28;20206;-26
2021/12/21 01:26:34;;;;;;;27.53;12.80;;;3.30;99.90;;;;;;4988039;28;20301;-26
2021/12/21 01:29:08;;;;;;;27.50;13.10;;;3.20;99.90;;;;;;4987022;28;20289;-27
2021/12/21 01:34:24;;;;;;;34.33;13.40;;;3.20;99.90;;;;;;4969401;28;20214;-26
2021/12/21 01:37:02;;;;;;;26.30;13.17;;;3.10;99.90;;;;;;4969200;28;20203;-26
2021/12/21 01:42:26;;;;;;;30.13;12.70;;;3.10;99.90;;;;;;4969167;28;20629;-27
2021/12/21 01:50:30;;;;;;;28.87;12.90;;;3.00;99.90;;;;;;4988427;28;20252;-27
2021/12/21 01:52:57;;;;;;;32.77;13.20;;;3.00;99.90;;;;;;4986778;28;20317;-26
2021/12/21 01:55:24;;;;;;;26.87;13.17;;;2.90;99.90;;;;;;4968341;28;20206;-26
2021/12/21 01:57:52;;;;;;;31.43;12.90;;;3.00;99.90;;;;;;4980364;28;20761;-27
2021/12/21 02:00:19;;;;;;;26.47;13.40;;;3.00;99.90;;;;;;4988467;28;20218;-26
2021/12/21 02:02:47;;;;;;;25.30;13.33;;;2.90;99.90;;;;;;4985961;28;20214;-26
2021/12/21 02:05:14;;;;;;;28.73;13.80;;;3.00;99.90;;;;;;4976684;28;20600;-27
2021/12/21 02:07:41;;;;;;;24.50;13.60;;;2.90;99.90;;;;;;4987966;28;20309;-26
2021/12/21 02:10:11;;;;;;;24.30;12.87;;;2.90;99.90;;;;;;4987240;28;20198;-26
2021/12/21 02:12:39;;;;;;;34.90;14.10;;;2.90;99.90;;;;;;4986339;28;20257;-27
2021/12/21 02:15:12;;;;;;;28.10;14.00;;;2.90;99.90;;;;;;4980672;28;20254;-26
2021/12/21 02:31:08;;;;;;;26.77;14.33;;;2.80;99.90;;;;;;4982840;28;20620;-26
2021/12/21 02:33:40;;;;;;;28.30;13.37;;;2.70;99.90;;;;;;4988048;28;20304;-26
2021/12/21 02:36:10;;;;;;;34.67;14.60;;;2.70;99.90;;;;;;4988154;28;20681;-26
2021/12/21 02:38:37;;;;;;;26.27;15.03;;;2.70;99.90;;;;;;4985980;28;20226;-26
2021/12/21 02:41:07;;;;;;;27.83;14.33;;;2.70;99.90;;;;;;4987256;28;20202;-26
2021/12/21 02:43:38;;;;;;;27.50;13.83;;;2.70;99.90;;;;;;4987986;28;20280;-26
2021/12/21 02:46:10;;;;;;;30.57;14.97;;;2.70;99.90;;;;;;4988133;28;20198;-26
2021/12/21 02:48:37;;;;;;;31.13;14.27;;;2.70;99.90;;;;;;4988264;28;20635;-26
2021/12/21 02:51:05;;;;;;;30.00;15.10;;;2.70;99.90;;;;;;4972945;28;20246;-26
2021/12/21 02:53:32;;;;;;;29.53;14.70;;;2.70;99.90;;;;;;4971816;28;20253;-26
2021/12/21 02:55:59;;;;;;;26.90;14.10;;;2.70;99.90;;;;;;4971233;28;20207;-26
2021/12/21 02:58:27;;;;;;;24.53;14.43;;;2.60;99.90;;;;;;4971760;28;20222;-26
2021/12/21 03:00:56;;;;;;;27.67;14.30;;;2.60;99.90;;;;;;4972215;28;20615;-26
2021/12/21 03:03:26;;;;;;;26.30;13.70;;;2.60;99.90;;;;;;4981775;28;20219;-26
2021/12/21 03:05:56;;;;;;;27.10;14.40;;;2.60;99.90;;;;;;4984631;28;20214;-26
2021/12/21 03:08:36;;;;;;;32.83;14.37;;;2.60;99.90;;;;;;4990951;28;20210;-26
2021/12/21 03:16:21;;;;;;;27.00;13.77;;;2.50;99.90;;;;;;4971900;28;20211;-27
2021/12/21 03:18:48;;;;;;;28.77;14.23;;;2.40;99.90;;;;;;4972049;28;20249;-26
2021/12/21 03:21:18;;;;;;;29.73;14.13;;;2.40;99.90;;;;;;4971734;28;20277;-26
2021/12/21 03:23:47;;;;;;;25.83;13.80;;;2.40;99.90;;;;;;4984382;28;20210;-26
2021/12/21 03:26:14;;;;;;;29.90;12.50;;;2.30;99.90;;;;;;4990436;28;20233;-26
2021/12/21 03:28:44;;;;;;;26.07;13.03;;;2.30;99.90;;;;;;4991211;28;20214;-26
2021/12/21 03:31:11;;;;;;;24.70;12.43;;;2.30;99.90;;;;;;4989522;28;20648;-26
2021/12/21 03:33:41;;;;;;;31.03;13.53;;;2.30;99.90;;;;;;4989636;28;20289;-27
2021/12/21 03:36:09;;;;;;;26.40;12.90;;;2.30;99.90;;;;;;4971230;28;20203;-27
2021/12/21 03:38:38;;;;;;;26.37;13.33;;;2.30;99.90;;;;;;4973555;28;20324;-27
2021/12/21 03:41:13;;;;;;;26.10;12.73;;;2.20;99.90;;;;;;4990157;28;20233;-27
2021/12/21 03:43:40;;;;;;;27.07;13.00;;;2.20;99.90;;;;;;4990685;28;20205;-26
2021/12/21 03:46:13;;;;;;;25.30;13.00;;;2.20;99.90;;;;;;4982696;28;20217;-26
2021/12/21 03:48:46;;;;;;;26.73;12.70;;;2.10;99.90;;;;;;4971297;28;20215;-26
2021/12/21 03:51:19;;;;;;;26.03;12.87;;;2.10;99.90;;;;;;4971263;28;20306;-26
2021/12/21 03:53:48;;;;;;;21.33;12.47;;;2.10;99.90;;;;;;4970913;28;20223;-26
2021/12/21 03:58:43;;;;;;;23.03;11.73;;;2.10;99.90;;;;;;4970409;28;20277;-26
2021/12/21 04:01:11;;;;;;;22.50;11.50;;;2.10;99.90;;;;;;4970952;28;20285;-26
2021/12/21 04:03:38;;;;;;;23.77;12.30;;;2.00;99.90;;;;;;4987275;28;20225;-26
2021/12/21 04:06:06;;;;;;;27.67;12.03;;;2.00;99.90;;;;;;4990373;28;20314;-27
2021/12/21 04:08:35;;;;;;;24.43;11.30;;;2.00;99.90;;;;;;4988727;28;20248;-26
2021/12/21 04:11:03;;;;;;;23.27;11.60;;;2.00;99.90;;;;;;4988652;28;20676;-26
2021/12/21 04:13:31;;;;;;;27.53;11.53;;;2.00;99.90;;;;;;4980017;28;20245;-26
2021/12/21 04:16:01;;;;;;;22.23;11.33;;;2.00;99.90;;;;;;4970883;28;20286;-26
2021/12/21 04:18:35;;;;;;;25.20;10.93;;;2.00;99.90;;;;;;4970599;28;20614;-26
2021/12/21 04:21:04;;;;;;;22.10;10.67;;;2.10;99.90;;;;;;4970464;28;20239;-26
2021/12/21 04:23:31;;;;;;;25.10;10.70;;;2.10;99.90;;;;;;4970457;28;20238;-26
2021/12/21 04:26:01;;;;;;;18.20;10.07;;;2.10;99.90;;;;;;4969705;28;20744;-26
2021/12/21 04:28:29;;;;;;;27.13;11.60;;;2.10;99.90;;;;;;4970539;28;20735;-26
2021/12/21 04:31:02;;;;;;;21.47;11.20;;;2.10;99.90;;;;;;4970798;28;20219;-26
2021/12/21 04:33:31;;;;;;;22.23;10.33;;;2.10;99.90;;;;;;4969119;28;20199;-26
2021/12/21 04:36:03;;;;;;;23.57;11.30;;;2.10;99.90;;;;;;4970840;28;20195;-26
2021/12/21 04:38:35;;;;;;;24.43;11.67;;;2.10;99.90;;;;;;4969836;28;20223;-26
2021/12/21 04:41:14;;;;;;;25.27;11.70;;;2.10;99.90;;;;;;4969571;28;20266;-26
2021/12/21 04:43:46;;;;;;;26.33;10.67;;;2.00;99.90;;;;;;4968775;28;20203;-26
2021/12/21 04:46:13;;;;;;;23.10;11.43;;;2.10;99.90;;;;;;4989017;28;20697;-26
2021/12/21 04:48:43;;;;;;;25.97;11.50;;;2.00;99.90;;;;;;4988817;28;20273;-26
2021/12/21 04:51:13;;;;;;;23.27;10.57;;;2.00;99.90;;;;;;4989239;28;20212;-26
2021/12/21 04:53:40;;;;;;;21.53;10.50;;;2.00;99.90;;;;;;4969870;28;20219;-26
2021/12/21 04:56:08;;;;;;;20.83;10.53;;;2.00;99.90;;;;;;4967539;28;20240;-26
2021/12/21 04:58:40;;;;;;;18.07;10.23;;;2.00;99.90;;;;;;4970217;28;20213;-26
2021/12/21 05:01:10;;;;;;;21.13;10.33;;;2.00;99.90;;;;;;4969731;28;20682;-26
2021/12/21 05:03:39;;;;;;;23.20;10.73;;;2.00;99.90;;;;;;4954103;28;20708;-26
2021/12/21 05:06:07;;;;;;;24.63;10.60;;;2.00;99.90;;;;;;4950601;28;20218;-26
2021/12/21 05:08:39;;;;;;;25.63;10.63;;;2.00;99.90;;;;;;4948924;28;20235;-26
2021/12/21 05:11:07;;;;;;;25.37;11.00;;;2.00;99.90;;;;;;4948980;28;20211;-26
2021/12/21 05:13:39;;;;;;;21.17;9.70;;;2.00;99.90;;;;;;4950513;28;20282;-26
2021/12/21 05:16:07;;;;;;;24.07;11.20;;;2.00;99.90;;;;;;4950308;28;20192;-24
2021/12/21 05:18:36;;;;;;;20.50;10.10;;;1.90;99.90;;;;;;4950206;28;20227;-25
2021/12/21 05:21:04;;;;;;;22.50;10.30;;;1.90;99.90;;;;;;4950178;28;20206;-24
2021/12/21 05:23:32;;;;;;;22.77;10.83;;;1.90;99.90;;;;;;4949790;28;20597;-24
2021/12/21 05:25:59;;;;;;;23.70;11.23;;;1.90;99.90;;;;;;4948038;28;20575;-24
2021/12/21 05:28:27;;;;;;;20.87;10.63;;;1.90;99.90;;;;;;4950364;28;20741;-24
2021/12/21 05:30:54;;;;;;;27.73;10.50;;;1.80;99.90;;;;;;4950056;28;20302;-26
2021/12/21 05:33:22;;;;;;;20.67;11.23;;;1.80;99.90;;;;;;4950191;28;20215;-26
2021/12/21 05:35:49;;;;;;;27.90;10.80;;;1.80;99.90;;;;;;4950415;28;20588;-26
2021/12/21 05:38:23;;;;;;;22.07;10.00;;;1.80;99.90;;;;;;4957411;28;20195;-26
2021/12/21 05:40:51;;;;;;;22.57;10.73;;;1.70;99.90;;;;;;4968275;28;20253;-26
2021/12/21 05:43:23;;;;;;;26.50;9.97;;;1.70;99.90;;;;;;4969121;28;20302;-26
2021/12/21 05:45:50;;;;;;;21.70;9.97;;;1.70;99.90;;;;;;4954430;28;20208;-26
2021/12/21 05:48:17;;;;;;;20.33;9.53;;;1.60;99.90;;;;;;4949812;28;20259;-26
2021/12/21 05:50:45;;;;;;;23.87;10.67;;;1.60;99.90;;;;;;4949826;28;20561;-26
2021/12/21 05:53:12;;;;;;;23.77;10.10;;;1.60;99.90;;;;;;4965132;28;20230;-26
2021/12/21 05:55:40;;;;;;;24.17;11.60;;;1.60;99.90;;;;;;4968739;28;20306;-26
2021/12/21 05:58:07;;;;;;;24.23;11.33;;;1.50;99.90;;;;;;4969293;28;20258;-26
2021/12/21 06:00:35;;;;;;;17.23;10.67;;;1.50;99.90;;;;;;4975810;28;20214;-26
2021/12/21 06:03:02;;;;;;;28.10;10.33;;;1.50;99.90;;;;;;4988010;28;20284;-26
2021/12/21 06:05:33;;;;;;;26.47;10.37;;;1.50;99.90;;;;;;4982927;28;20277;-26
2021/12/21 06:08:00;;;;;;;20.67;10.43;;;1.50;99.90;;;;;;4983165;28;20296;-26
2021/12/21 06:10:32;;;;;;;19.27;10.53;;;1.40;99.90;;;;;;4970824;28;20306;-26
2021/12/21 06:26:16;;;;;;;24.07;9.93;;;1.30;99.90;;;;;;4989559;28;20317;-26
2021/12/21 06:28:46;;;;;;;23.43;11.80;;;1.30;99.90;;;;;;4983838;28;20297;-26
2021/12/21 06:31:16;;;;;;;29.80;14.23;;;1.30;99.90;;;;;;4991082;28;20736;-26
2021/12/21 06:33:44;;;;;;;30.73;14.17;;;1.30;99.90;;;;;;4992027;28;20214;-26
2021/12/21 06:36:14;;;;;;;23.80;12.10;;;1.30;99.90;;;;;;4991766;28;20202;-26
2021/12/21 06:38:41;;;;;;;20.43;11.73;;;1.20;99.90;;;;;;4991567;28;20229;-26
2021/12/21 06:41:09;;;;;;;22.13;12.23;;;1.20;99.90;;;;;;4981390;28;20285;-26
2021/12/21 06:43:36;;;;;;;20.23;11.37;;;1.20;99.90;;;;;;4988042;28;20226;-26
2021/12/21 06:46:16;;;;;;;22.23;10.30;;;1.20;99.90;;;;;;4990082;28;20631;-26
2021/12/21 06:51:44;;;;;;;19.60;10.50;;;1.10;99.90;;;;;;4972149;28;20199;-26
2021/12/21 06:54:11;;;;;;;24.07;10.80;;;1.10;99.90;;;;;;4980339;28;20660;-26
2021/12/21 06:56:40;;;;;;;18.90;10.20;;;1.10;99.90;;;;;;4977341;28;20206;-26
2021/12/21 06:59:08;;;;;;;22.40;10.30;;;1.00;99.90;;;;;;4972029;28;20710;-26
2021/12/21 07:01:38;;;;;;;24.57;11.40;;;1.10;99.90;;;;;;4972734;28;20313;-26
2021/12/21 07:04:07;;;;;;;24.20;10.70;;;1.00;99.90;;;;;;4976271;28;20206;-26
2021/12/21 07:06:36;;;;;;;21.40;10.40;;;1.00;99.90;;;;;;4988958;28;20218;-26
2021/12/21 07:09:16;;;;;;;21.90;11.87;;;1.00;99.90;;;;;;4978249;28;20198;-27
2021/12/21 07:20:21;;;;;;;20.57;10.80;;;1.10;99.90;;;;;;4981267;28;20229;-27
2021/12/21 07:22:48;;;;;;;20.03;10.30;;;1.10;99.90;;;;;;4989981;28;20202;-27
2021/12/21 07:25:18;;;;;;;22.67;10.57;;;1.20;99.90;;;;;;4972534;28;20206;-27
2021/12/21 07:27:47;;;;;;;19.93;10.27;;;1.20;99.90;;;;;;4972089;28;20210;-27
2021/12/21 07:30:21;;;;;;;21.73;10.73;;;1.20;99.90;;;;;;4972693;28;20199;-27
2021/12/21 07:32:48;;;;;;;20.97;10.83;;;1.20;99.90;;;;;;4976914;28;20202;-27
2021/12/21 07:35:17;;;;;;;25.00;12.37;;;1.20;99.90;;;;;;4975939;28;20230;-27
2021/12/21 07:37:44;;;;;;;23.10;11.43;;;1.30;99.90;;;;;;4980903;28;20210;-27
2021/12/21 07:40:12;;;;;;;21.77;11.37;;;1.30;99.90;;;;;;4982317;28;20237;-27
2021/12/21 07:42:41;;;;;;;26.05;12.45;;;1.30;99.90;;;;;;4972220;28;21000;-27
2021/12/21 07:45:09;;;;;;;23.03;12.20;;;1.50;99.90;;;;;;4972878;28;20277;-27
2021/12/21 07:47:39;;;;;;;23.37;11.80;;;1.50;99.90;;;;;;4975943;28;20196;-27
2021/12/21 07:50:10;;;;;;;21.87;11.33;;;1.50;99.90;;;;;;4980010;28;20213;-27
2021/12/21 07:52:40;;;;;;;21.00;11.97;;;1.40;99.90;;;;;;4979758;28;20276;-27
2021/12/21 07:55:08;;;;;;;22.53;10.57;;;1.40;99.90;;;;;;4972851;28;20211;-27
2021/12/21 07:57:35;;;;;;;24.00;11.00;;;1.40;99.90;;;;;;4978040;28;20207;-27
2021/12/21 08:00:04;;;;;;;22.57;11.50;;;1.30;99.90;;;;;;4980605;28;20266;-27
2021/12/21 08:02:32;;;;;;;25.57;11.93;;;1.30;99.90;;;;;;4989876;28;20198;-27
2021/12/21 08:05:05;;;;;;;22.73;11.60;;;1.30;99.90;;;;;;4983848;28;20206;-27
2021/12/21 08:07:43;;;;;;;23.13;11.73;;;1.30;99.90;;;;;;4984705;28;20226;-27
2021/12/21 08:10:42;;;;;;;23.10;11.60;;;1.20;99.90;;;;;;4974593;28;20202;-27
2021/12/21 08:12:59;;;;;;;23.33;12.13;;;1.20;99.90;;;;;;4986348;28;20207;-27
2021/12/21 08:15:26;;;;;;;22.77;11.30;;;1.20;99.90;;;;;;4983832;28;20645;-26
2021/12/21 08:17:54;;;;;;;28.57;12.40;;;1.20;99.90;;;;;;4987639;28;20570;-26
2021/12/21 08:20:21;;;;;;;26.43;12.17;;;1.20;99.90;;;;;;4981310;28;20726;-26
2021/12/21 08:22:48;;;;;;;23.23;12.50;;;1.20;99.90;;;;;;4969842;28;20623;-26
2021/12/21 08:25:16;;;;;;;19.60;10.87;;;1.20;99.90;;;;;;4969435;28;20553;-26
2021/12/21 08:27:43;;;;;;;22.53;11.93;;;1.20;99.90;;;;;;4975419;28;20688;-26
2021/12/21 08:30:10;;;;;;;22.00;11.63;;;1.20;99.90;;;;;;4970003;28;20309;-26
2021/12/21 08:32:38;;;;;;;27.60;12.00;;;1.20;99.90;;;;;;4970330;28;20222;-26
2021/12/21 08:35:05;;;;;;;26.90;11.90;;;1.20;99.90;;;;;;4978575;28;20623;-26
2021/12/21 08:37:36;;;;;;;22.40;11.33;;;1.20;99.90;;;;;;4987475;28;20210;-26
2021/12/21 08:40:07;;;;;;;20.27;11.33;;;1.20;99.90;;;;;;4988541;28;20244;-26
2021/12/21 08:42:37;;;;;;;22.13;11.53;;;1.20;99.90;;;;;;4989482;28;20221;-26
2021/12/21 08:45:06;;;;;;;24.07;11.50;;;1.20;99.90;;;;;;4984274;28;20202;-26
2021/12/21 08:47:34;;;;;;;25.00;11.97;;;1.30;99.90;;;;;;4977490;28;20322;-26
2021/12/21 08:50:04;;;;;;;21.40;11.77;;;1.30;99.90;;;;;;4968393;28;20222;-26
2021/12/21 08:52:32;;;;;;;19.50;11.00;;;1.30;99.90;;;;;;4969264;28;20365;-26
2021/12/21 08:54:59;;;;;;;24.87;11.80;;;1.30;99.90;;;;;;4976643;28;20233;-26
2021/12/21 08:57:26;;;;;;;24.73;11.93;;;1.40;99.90;;;;;;4985837;28;20702;-26
2021/12/21 08:59:56;;;;;;;24.27;12.13;;;1.40;99.90;;;;;;4986652;28;20687;-26
2021/12/21 09:02:24;;;;;;;24.07;12.43;;;1.40;99.90;;;;;;4974229;28;20262;-27
2021/12/21 09:04:53;;;;;;;28.30;12.60;;;1.50;99.90;;;;;;4976250;28;20662;-26
2021/12/21 09:07:21;;;;;;;26.43;12.20;;;1.50;99.90;;;;;;4968804;28;20604;-26
2021/12/21 09:09:48;;;;;;;29.57;12.67;;;1.50;99.90;;;;;;4980065;28;20210;-26
2021/12/21 09:12:15;;;;;;;22.90;11.77;;;1.60;99.90;;;;;;4988740;28;20241;-26
2021/12/21 09:14:45;;;;;;;29.97;12.17;;;1.60;99.90;;;;;;4969200;28;20211;-26
2021/12/21 09:17:12;;;;;;;21.80;11.87;;;1.60;99.90;;;;;;4969428;28;20211;-26
2021/12/21 09:19:39;;;;;;;23.43;12.40;;;1.70;99.90;;;;;;4988883;28;20228;-26
2021/12/21 09:22:06;;;;;;;23.90;12.60;;;1.70;99.90;;;;;;4979329;28;20206;-26
2021/12/21 09:24:39;;;;;;;21.93;12.17;;;1.70;99.90;;;;;;4969612;28;20216;-26
2021/12/21 09:27:09;;;;;;;26.43;12.47;;;1.80;99.90;;;;;;4970173;28;20230;-26
2021/12/21 09:29:36;;;;;;;19.90;11.90;;;1.80;99.90;;;;;;4969154;28;20703;-26
2021/12/21 09:32:06;;;;;;;22.60;11.50;;;1.80;99.90;;;;;;4981236;28;20589;-26
2021/12/21 09:34:36;;;;;;;20.57;11.73;;;1.90;99.90;;;;;;4988651;28;20313;-26
2021/12/21 09:37:04;;;;;;;19.30;11.43;;;1.90;99.90;;;;;;4972867;28;20591;-26
2021/12/21 09:39:31;;;;;;;19.70;11.07;;;1.90;99.90;;;;;;4968564;28;20441;-26
2021/12/21 09:41:59;;;;;;;19.97;10.70;;;1.90;99.90;;;;;;4968643;28;20269;-26
2021/12/21 09:44:30;;;;;;;21.37;11.50;;;2.00;99.90;;;;;;4969593;28;20576;-26
2021/12/21 09:46:58;;;;;;;22.43;11.27;;;2.00;99.90;;;;;;4975692;28;20205;-26
2021/12/21 09:49:26;;;;;;;19.67;10.93;;;2.00;99.90;;;;;;4986862;28;20210;-26
2021/12/21 09:51:53;;;;;;;26.77;11.67;;;2.00;99.90;;;;;;4976507;28;20249;-26
2021/12/21 09:54:24;;;;;;;22.07;11.87;;;2.10;99.90;;;;;;4978375;28;20230;-26
2021/12/21 09:56:51;;;;;;;23.47;11.63;;;2.10;99.90;;;;;;4969036;28;20226;-26
2021/12/21 09:59:19;;;;;;;18.50;10.50;;;2.10;99.90;;;;;;4968755;28;20530;-26
2021/12/21 10:01:46;;;;;;;19.33;10.83;;;2.20;99.90;;;;;;4968767;28;20234;-26
2021/12/21 10:04:17;;;;;;;15.77;11.07;;;2.20;99.90;;;;;;4968795;28;20219;-26
2021/12/21 10:06:47;;;;;;;22.00;11.27;;;2.20;99.90;;;;;;4974968;28;20237;-26
2021/12/21 10:09:23;;;;;;;18.23;10.83;;;2.30;99.90;;;;;;4968295;28;20301;-25
2021/12/21 10:12:04;;;;;;;18.97;11.13;;;2.30;99.90;;;;;;4980476;28;20210;-26
2021/12/21 10:14:34;;;;;;;19.97;10.07;;;2.40;99.90;;;;;;4988187;28;20194;-26
2021/12/21 10:17:07;;;;;;;21.47;11.07;;;2.40;99.90;;;;;;4985732;28;20202;-26
2021/12/21 10:19:35;;;;;;;20.10;11.03;;;2.50;99.90;;;;;;4986510;28;20249;-26
2021/12/21 10:22:13;;;;;;;19.40;11.10;;;2.40;99.90;;;;;;4981922;28;20231;-26
2021/12/21 10:24:49;;;;;;;19.57;10.87;;;2.50;99.90;;;;;;4968006;28;20412;-26
2021/12/21 10:27:19;;;;;;;16.93;10.53;;;2.50;99.90;;;;;;4983797;28;20218;-25
2021/12/21 10:29:46;;;;;;;18.03;10.97;;;2.60;99.90;;;;;;4985870;28;20301;-26
2021/12/21 10:32:22;;;;;;;21.83;11.03;;;2.60;99.90;;;;;;4984913;28;20206;-26
2021/12/21 10:35:04;;;;;;;18.90;10.87;;;2.60;99.90;;;;;;4968046;28;20378;-26
2021/12/21 10:37:35;;;;;;;19.30;10.73;;;2.60;99.90;;;;;;4977480;28;20230;-26
2021/12/21 10:40:21;;;;;;;17.30;10.73;;;2.70;99.90;;;;;;4980599;28;20222;-26
2021/12/21 10:42:55;;;;;;;20.00;10.83;;;2.70;99.90;;;;;;4971021;28;20207;-26
2021/12/21 10:45:31;;;;;;;17.73;10.43;;;2.70;99.90;;;;;;4969836;28;20613;-26
2021/12/21 10:48:00;;;;;;;19.17;10.27;;;2.70;99.90;;;;;;4984592;28;20202;-26
2021/12/21 10:50:34;;;;;;;19.67;10.20;;;2.70;99.90;;;;;;4987663;28;20206;-26
2021/12/21 10:53:03;;;;;;;18.37;10.37;;;2.80;99.90;;;;;;4985175;28;20289;-26
2021/12/21 10:55:34;;;;;;;18.57;10.73;;;2.80;99.90;;;;;;4969739;28;20217;-26
2021/12/21 10:58:18;;;;;;;23.57;10.20;;;2.80;99.90;;;;;;4971386;28;20588;-26
2021/12/21 11:00:59;;;;;;;24.27;11.13;;;2.90;99.90;;;;;;4980713;28;20237;-26
2021/12/21 11:03:57;;;;;;;16.50;9.97;;;2.90;99.90;;;;;;4987724;28;20212;-26
2021/12/21 11:06:34;;;;;;;19.83;10.43;;;3.00;99.90;;;;;;4971486;28;20214;-26
2021/12/21 11:09:04;;;;;;;16.40;9.93;;;3.00;99.90;;;;;;4970222;28;20640;-26
2021/12/21 11:11:44;;;;;;;16.57;9.83;;;3.10;99.90;;;;;;4972072;28;20230;-26
2021/12/21 11:14:15;;;;;;;18.23;10.30;;;3.10;99.90;;;;;;4971325;28;20202;-26
2021/12/21 11:16:48;;;;;;;20.97;9.87;;;3.20;99.90;;;;;;4971893;28;20615;-26
2021/12/21 11:19:21;;;;;;;20.63;10.40;;;3.20;99.90;;;;;;4984643;28;20225;-26
2021/12/21 11:21:50;;;;;;;20.60;9.53;;;3.20;99.90;;;;;;4987103;28;20230;-26
2021/12/21 11:24:19;;;;;;;19.13;9.87;;;3.30;99.90;;;;;;4985585;28;20297;-26
2021/12/21 11:26:48;;;;;;;19.80;9.83;;;3.30;99.90;;;;;;4971033;28;20199;-26
2021/12/21 11:29:18;;;;;;;15.93;9.63;;;3.40;99.90;;;;;;4970131;28;20294;-26
2021/12/21 11:31:51;;;;;;;16.03;10.03;;;3.40;99.90;;;;;;4979556;28;20221;-26
2021/12/21 11:34:21;;;;;;;17.00;9.67;;;3.40;99.90;;;;;;4988227;28;20206;-26
2021/12/21 11:39:41;;;;;;;14.90;9.13;;;3.50;99.90;;;;;;4968767;28;20552;-26
2021/12/21 11:42:20;;;;;;;15.67;9.00;;;3.50;99.90;;;;;;4998215;28;20245;-26
2021/12/21 11:45:17;;;;;;;17.07;9.53;;;3.60;99.90;;;;;;4989045;28;20202;-26
2021/12/21 11:47:55;;;;;;;13.97;9.20;;;3.60;99.90;;;;;;4990242;28;20225;-26
2021/12/21 11:50:27;;;;;;;15.20;8.50;;;3.60;99.90;;;;;;4982737;28;20464;-26
2021/12/21 11:53:01;;;;;;;16.57;8.67;;;3.70;99.90;;;;;;4970960;28;20383;-26
2021/12/21 11:55:30;;;;;;;13.40;7.77;;;3.70;99.90;;;;;;4969969;28;20294;-26
2021/12/21 11:58:00;;;;;;;13.97;8.90;;;3.70;99.90;;;;;;4953294;28;20694;-26
2021/12/21 12:00:34;;;;;;;14.03;9.17;;;3.70;99.90;;;;;;4977172;28;20234;-26
2021/12/21 12:03:15;;;;;;;15.97;8.37;;;3.80;99.90;;;;;;4971744;28;20207;-27
2021/12/21 12:05:58;;;;;;;14.50;8.47;;;3.80;99.90;;;;;;4970793;28;20211;-26
2021/12/21 12:08:39;;;;;;;14.97;8.43;;;3.90;99.90;;;;;;4968756;28;20209;-26
2021/12/21 12:11:26;;;;;;;13.10;7.83;;;3.90;99.90;;;;;;4969576;28;20578;-26
2021/12/21 12:14:12;;;;;;;13.53;7.60;;;3.90;99.90;;;;;;4969205;28;20221;-27
2021/12/21 12:16:48;;;;;;;10.93;6.97;;;4.00;99.90;;;;;;4970209;28;20613;-26
2021/12/21 12:19:30;;;;;;;12.50;8.40;;;4.00;99.90;;;;;;4972172;28;20739;-26
2021/12/21 12:21:59;;;;;;;16.67;7.47;;;4.00;99.90;;;;;;4976510;28;20227;-26
2021/12/21 12:24:37;;;;;;;13.67;7.57;;;4.00;99.90;;;;;;4969897;28;20222;-26
2021/12/21 12:27:10;;;;;;;15.73;7.40;;;4.10;99.90;;;;;;4970523;28;20281;-26
2021/12/21 12:29:57;;;;;;;15.53;7.37;;;4.10;99.90;;;;;;4970167;28;20202;-26
2021/12/21 12:32:37;;;;;;;16.10;7.60;;;4.10;99.90;;;;;;4985423;28;20217;-26
2021/12/21 12:35:18;;;;;;;10.97;6.77;;;4.20;99.90;;;;;;4989668;28;20211;-26
2021/12/21 12:37:54;;;;;;;13.83;7.37;;;4.20;99.90;;;;;;4987716;28;20198;-26
2021/12/21 12:40:27;;;;;;;12.60;6.90;;;4.20;99.90;;;;;;4975063;28;20586;-26
2021/12/21 12:43:08;;;;;;;12.63;7.00;;;4.20;99.90;;;;;;4982935;28;20264;-26
2021/12/21 12:45:45;;;;;;;14.97;8.03;;;4.30;99.90;;;;;;4952897;28;20771;-26
2021/12/21 12:48:19;;;;;;;11.10;6.87;;;4.30;99.90;;;;;;4984425;28;20209;-26
2021/12/21 12:50:47;;;;;;;12.47;7.63;;;4.30;99.90;;;;;;4970434;28;20219;-26
2021/12/21 12:53:14;;;;;;;11.73;6.63;;;4.40;99.90;;;;;;4988704;28;20250;-24
2021/12/21 12:55:50;;;;;;;11.23;7.23;;;4.40;99.90;;;;;;4988796;28;20583;-23
2021/12/21 12:58:55;;;;;;;14.90;6.93;;;4.40;99.90;;;;;;4988832;28;20293;-24
2021/12/21 13:01:27;;;;;;;13.17;6.60;;;4.50;99.90;;;;;;4970036;28;20238;-24
2021/12/21 13:03:58;;;;;;;11.43;6.07;;;4.50;99.90;;;;;;4969718;28;20577;-26
2021/12/21 13:06:33;;;;;;;11.40;6.97;;;4.50;99.90;;;;;;4968204;28;20214;-26
2021/12/21 13:09:01;;;;;;;10.70;7.10;;;4.50;99.90;;;;;;4970124;28;20221;-26
2021/12/21 13:11:30;;;;;;;8.93;5.67;;;4.60;99.90;;;;;;4983980;28;20203;-24
2021/12/21 13:13:58;;;;;;;9.50;6.00;;;4.60;99.90;;;;;;4969246;28;20203;-23
2021/12/21 13:16:34;;;;;;;9.50;6.03;;;4.60;99.90;;;;;;4969749;28;20218;-23
2021/12/21 13:19:04;;;;;;;11.43;6.60;;;4.60;99.90;;;;;;4976808;28;20210;-24
2021/12/21 13:21:40;;;;;;;10.77;5.50;;;4.70;99.90;;;;;;4978063;28;20276;-23
2021/12/21 13:24:09;;;;;;;11.23;5.37;;;4.70;99.90;;;;;;4986565;28;20662;-23
2021/12/21 13:26:38;;;;;;;12.03;5.37;;;4.70;99.90;;;;;;5000311;28;20341;-24
2021/12/21 13:29:09;;;;;;;8.27;5.27;;;4.70;99.90;;;;;;4975155;28;20241;-23
2021/12/21 13:31:41;;;;;;;12.10;5.10;;;4.70;99.90;;;;;;4969911;28;20278;-26
2021/12/21 13:34:08;;;;;;;7.77;5.00;;;4.70;99.90;;;;;;4969813;28;20258;-26
2021/12/21 13:36:41;;;;;;;9.23;5.10;;;4.70;99.90;;;;;;4976218;28;20203;-26
2021/12/21 13:39:15;;;;;;;8.53;5.57;;;4.80;99.90;;;;;;4968821;28;20265;-26
2021/12/21 13:41:51;;;;;;;9.13;5.17;;;4.80;99.90;;;;;;4967880;28;20234;-26
2021/12/21 13:44:33;;;;;;;7.57;5.00;;;4.80;99.90;;;;;;4976630;28;20198;-27
2021/12/21 13:47:03;;;;;;;9.60;5.20;;;4.80;99.90;;;;;;4987368;28;20202;-27
2021/12/21 13:50:03;;;;;;;8.20;4.87;;;4.80;99.90;;;;;;4988689;28;20658;-27
2021/12/21 13:52:54;;;;;;;9.63;5.63;;;4.90;99.90;;;;;;4985595;28;20916;-27
2021/12/21 13:55:42;;;;;;;11.43;6.03;;;4.90;99.90;;;;;;4970527;28;20231;-27
2021/12/21 13:58:13;;;;;;;9.33;5.33;;;4.90;99.90;;;;;;4973746;28;20298;-27
2021/12/21 14:00:46;;;;;;;9.57;5.17;;;4.90;99.90;;;;;;4979354;28;20241;-27
2021/12/21 14:03:20;;;;;;;9.53;5.13;;;4.90;99.90;;;;;;4977769;28;20621;-27
2021/12/21 14:05:55;;;;;;;9.97;5.60;;;4.90;99.90;;;;;;4986135;28;20715;-27
2021/12/21 14:08:26;;;;;;;11.30;5.20;;;4.90;99.90;;;;;;4986512;28;20209;-27
2021/12/21 14:10:56;;;;;;;11.13;5.67;;;4.90;99.90;;;;;;4978779;28;20685;-27
2021/12/21 14:13:32;;;;;;;12.43;5.60;;;4.90;99.90;;;;;;4973673;28;20206;-27
2021/12/21 14:16:08;;;;;;;12.13;5.90;;;4.90;99.90;;;;;;4987312;28;20447;-27